Terminal Aerodrome Forecast
Issued by NWS

Home | Current Version | Previous Version | Text Only | Print | Product List | Glossary On
Versions: 1 2 3 4 5 6 7 8 9 10 11 12 13 14 15 16 17 18 19 20 21 22
000
FTUS43 KMQT 160500
TAFIWD
TAF
KIWD 160532Z 1606/1706 VRB04KT P6SM SCT200
     FM161200 15006KT P6SM BKN080
     FM161400 13006KT 5SM -SN OVC050
     FM161700 12010KT 2SM -SN OVC025
     FM161900 10015KT 1/2SM SN OVC008
     FM170200 07012KT 3SM -SN OVC008
      AMD LTD TO CLD VIS AND WIND=

USA.gov is the U.S. government's official web portal to all federal, state and local government web resources and services.